createdAt,value
2023-04-20T00:01:17.149Z,7.77
2023-04-20T00:02:43.289Z,7.78
2023-04-20T00:04:30.620Z,7.75
2023-04-20T00:06:15.534Z,7.75
2023-04-20T00:08:00.340Z,7.73
2023-04-20T00:09:39.205Z,7.71
2023-04-20T00:11:05.939Z,7.72
2023-04-20T00:12:51.238Z,7.73
2023-04-20T00:14:25.150Z,7.76
2023-04-20T00:16:19.375Z,7.79
2023-04-20T00:17:52.382Z,7.82
2023-04-20T00:19:14.632Z,7.80
2023-04-20T00:20:59.545Z,7.86
2023-04-20T00:22:33.363Z,7.87
2023-04-20T00:24:07.114Z,7.86
2023-04-20T00:25:38.197Z,7.86
2023-04-20T00:27:12.207Z,7.82
2023-04-20T00:28:53.765Z,7.84
2023-04-20T00:30:18.060Z,7.83
2023-04-20T00:31:46.178Z,7.81
2023-04-20T00:33:33.702Z,7.78
2023-04-20T00:35:18.755Z,7.80
2023-04-20T00:36:40.100Z,7.80
2023-04-20T00:38:13.876Z,7.78
2023-04-20T00:39:37.733Z,7.78
2023-04-20T00:41:04.359Z,7.76
2023-04-20T00:42:41.104Z,7.78
2023-04-20T00:44:25.111Z,7.75
2023-04-20T00:46:05.721Z,7.75
2023-04-20T00:47:47.603Z,7.75
2023-04-20T00:49:33.723Z,7.75
2023-04-20T00:51:10.026Z,7.76
2023-04-20T00:52:48.827Z,7.76
2023-04-20T00:54:22.178Z,7.78
2023-04-20T00:55:55.259Z,7.78
2023-04-20T00:57:40.906Z,7.77
2023-04-20T00:59:14.851Z,7.77
2023-04-20T01:00:59.980Z,7.81
2023-04-20T01:02:36.318Z,7.83
2023-04-20T01:04:25.787Z,7.86
2023-04-20T01:06:15.316Z,7.90
2023-04-20T01:07:59.970Z,7.92
2023-04-20T01:09:47.724Z,7.93
2023-04-20T01:11:38.407Z,7.91
2023-04-20T01:13:09.704Z,7.90
2023-04-20T01:14:45.467Z,7.94
2023-04-20T01:16:19.637Z,7.95
2023-04-20T01:18:05.901Z,7.97
2023-04-20T01:19:53.515Z,8.00
2023-04-20T01:21:29.346Z,7.99
2023-04-20T01:23:03.153Z,7.98
2023-04-20T01:24:56.408Z,7.97
2023-04-20T01:26:32.567Z,7.96
2023-04-20T01:28:17.850Z,7.86
2023-04-20T01:29:53.927Z,7.96
2023-04-20T01:31:16.248Z,7.99
2023-04-20T01:33:01.342Z,8.01
2023-04-20T01:34:34.955Z,8.02
2023-04-20T01:36:19.978Z,8.01
2023-04-20T01:37:55.150Z,8.01
2023-04-20T01:39:40.155Z,8.01
2023-04-20T01:41:37.387Z,7.99
2023-04-20T01:43:22.696Z,8.05
2023-04-20T01:44:55.899Z,8.05
2023-04-20T01:46:29.254Z,8.03
2023-04-20T01:48:04.893Z,8.02
2023-04-20T01:49:59.507Z,8.04
2023-04-20T01:51:37.579Z,8.02
2023-04-20T01:53:27.772Z,8.03
2023-04-20T01:55:14.497Z,8.00
2023-04-20T01:56:48.235Z,8.04
2023-04-20T01:58:34.113Z,8.03
2023-04-20T02:00:08.950Z,8.02
2023-04-20T02:01:38.591Z,8.01
2023-04-20T02:03:13.189Z,7.99
2023-04-20T02:04:58.333Z,8.00
2023-04-20T02:06:25.170Z,8.00
2023-04-20T02:08:06.144Z,8.01
2023-04-20T02:09:50.090Z,8.02
2023-04-20T02:11:35.313Z,8.03
2023-04-20T02:13:08.733Z,8.03
2023-04-20T02:14:41.928Z,8.03
2023-04-20T02:16:17.802Z,8.03
2023-04-20T02:17:52.806Z,8.02
2023-04-20T02:19:29.118Z,8.02
2023-04-20T02:21:13.997Z,8.01
2023-04-20T02:22:58.695Z,8.04
2023-04-20T02:24:43.864Z,8.07
2023-04-20T02:26:21.714Z,7.99
2023-04-20T02:27:54.862Z,8.06
2023-04-20T02:29:48.538Z,8.05
2023-04-20T02:31:40.817Z,8.04
2023-04-20T02:33:24.743Z,8.03
2023-04-20T02:35:05.144Z,8.02
2023-04-20T02:36:56.308Z,7.94
2023-04-20T02:38:41.391Z,8.01
2023-04-20T02:40:26.866Z,7.98
2023-04-20T02:42:03.983Z,8.01
2023-04-20T02:43:48.804Z,8.00
2023-04-20T02:45:33.753Z,8.00
2023-04-20T02:47:19.568Z,8.01
2023-04-20T02:49:13.017Z,8.04
2023-04-20T02:50:48.705Z,8.03
2023-04-20T02:52:25.670Z,8.03
2023-04-20T02:54:01.969Z,8.06
2023-04-20T02:55:41.969Z,8.01
2023-04-20T02:57:15.752Z,8.08
2023-04-20T02:59:00.861Z,8.07
2023-04-20T03:01:22.251Z,7.99
2023-04-20T03:02:58.131Z,8.04
2023-04-20T03:04:44.422Z,8.00
2023-04-20T03:06:39.680Z,7.95
2023-04-20T03:08:15.437Z,7.86
2023-04-20T03:10:00.920Z,7.85
2023-04-20T03:11:53.167Z,7.82
2023-04-20T03:13:28.966Z,7.80
2023-04-20T03:15:11.153Z,7.79
2023-04-20T03:17:11.495Z,7.69
2023-04-20T03:18:47.317Z,7.73
2023-04-20T03:20:34.801Z,7.70
2023-04-20T03:22:20.049Z,7.66
2023-04-20T03:24:01.758Z,7.62
2023-04-20T03:25:31.163Z,7.58
2023-04-20T03:27:06.945Z,7.56
2023-04-20T03:29:00.209Z,7.51
2023-04-20T03:30:36.584Z,7.51
2023-04-20T03:32:32.081Z,7.48
2023-04-20T03:34:14.291Z,7.45
2023-04-20T03:35:57.431Z,7.43
2023-04-20T03:37:33.751Z,7.41
2023-04-20T03:39:08.794Z,7.40
2023-04-20T03:40:54.252Z,7.41
2023-04-20T03:42:45.154Z,7.41
2023-04-20T03:44:21.220Z,7.35
2023-04-20T03:45:54.453Z,7.40
2023-04-20T03:47:35.581Z,7.40
2023-04-20T03:49:15.568Z,7.37
2023-04-20T03:51:00.258Z,7.36
2023-04-20T03:52:35.688Z,7.35
2023-04-20T03:54:11.100Z,7.34
2023-04-20T03:55:35.538Z,7.35
2023-04-20T03:57:14.418Z,7.34
2023-04-20T03:58:47.701Z,7.31
2023-04-20T04:00:39.103Z,7.30
2023-04-20T04:02:02.227Z,7.26
2023-04-20T04:03:47.530Z,7.29
2023-04-20T04:05:23.324Z,7.30
2023-04-20T04:07:08.897Z,7.31
2023-04-20T04:08:50.501Z,7.33
2023-04-20T04:10:24.239Z,7.33
2023-04-20T04:11:57.582Z,7.37
2023-04-20T04:13:42.862Z,7.39
2023-04-20T04:15:19.627Z,7.41
2023-04-20T04:17:00.855Z,7.44
2023-04-20T04:18:41.686Z,7.51
2023-04-20T04:20:29.409Z,7.54
2023-04-20T04:22:03.988Z,7.61
2023-04-20T04:23:28.834Z,7.65
2023-04-20T04:25:11.743Z,7.68
2023-04-20T04:26:47.619Z,7.69
2023-04-20T04:28:33.308Z,7.72
2023-04-20T04:30:11.540Z,7.76
2023-04-20T04:31:36.194Z,7.79
2023-04-20T04:33:21.791Z,7.81
2023-04-20T04:35:06.991Z,7.83
2023-04-20T04:36:40.403Z,7.86
2023-04-20T04:38:12.603Z,7.87
2023-04-20T04:39:48.601Z,7.88
2023-04-20T04:41:14.868Z,7.88
2023-04-20T04:42:48.188Z,7.87
2023-04-20T04:44:19.775Z,7.85
2023-04-20T04:45:53.230Z,7.90
2023-04-20T04:47:29.513Z,7.92
2023-04-20T04:49:05.385Z,7.90
2023-04-20T04:50:40.826Z,7.93
2023-04-20T04:52:21.923Z,7.92
2023-04-20T04:53:56.729Z,7.91
2023-04-20T04:55:30.435Z,7.90
2023-04-20T04:57:06.387Z,7.91
2023-04-20T04:58:51.064Z,7.92
2023-04-20T05:00:27.469Z,7.92
2023-04-20T05:02:12.999Z,7.94
2023-04-20T05:03:46.784Z,7.96
2023-04-20T05:05:22.811Z,7.91
2023-04-20T05:07:07.992Z,7.98
2023-04-20T05:08:44.543Z,7.98
2023-04-20T05:10:20.342Z,7.98
2023-04-20T05:12:05.289Z,8.03
2023-04-20T05:13:38.629Z,8.05
2023-04-20T05:15:19.532Z,8.08
2023-04-20T05:17:04.232Z,8.10
2023-04-20T05:18:38.937Z,8.11
2023-04-20T05:20:12.593Z,8.09
2023-04-20T05:21:48.228Z,8.14
2023-04-20T05:23:36.768Z,8.15
2023-04-20T05:25:18.202Z,8.19
2023-04-20T05:26:53.569Z,8.18
2023-04-20T05:28:18.625Z,8.05
2023-04-20T05:29:47.436Z,8.20
2023-04-20T05:31:21.261Z,8.19
2023-04-20T05:33:02.131Z,8.21
2023-04-20T05:34:31.419Z,8.20
2023-04-20T05:36:17.599Z,8.23
2023-04-20T05:38:02.436Z,8.32
2023-04-20T05:39:24.448Z,8.40
2023-04-20T05:40:59.814Z,8.47
2023-04-20T05:42:31.524Z,8.54
2023-04-20T05:44:06.991Z,8.59
2023-04-20T05:45:42.609Z,8.65
2023-04-20T05:47:23.432Z,8.71
2023-04-20T05:48:58.890Z,8.77
2023-04-20T05:50:53.442Z,8.81
2023-04-20T05:52:38.368Z,8.85
2023-04-20T05:54:23.501Z,8.92
2023-04-20T05:56:08.457Z,8.96
2023-04-20T05:57:41.817Z,9.04
2023-04-20T05:59:32.272Z,9.13
2023-04-20T06:01:05.191Z,9.25
2023-04-20T06:02:29.418Z,9.35
2023-04-20T06:04:14.122Z,9.48
2023-04-20T06:05:47.763Z,9.60
2023-04-20T06:07:14.182Z,9.70
2023-04-20T06:08:59.520Z,9.79
2023-04-20T06:10:48.951Z,9.88
2023-04-20T06:12:34.074Z,9.87
2023-04-20T06:14:14.996Z,9.95
2023-04-20T06:15:44.160Z,10.03
2023-04-20T06:17:09.181Z,10.08
2023-04-20T06:18:38.283Z,10.10
2023-04-20T06:20:24.049Z,10.15
2023-04-20T06:21:49.735Z,10.17
2023-04-20T06:23:23.371Z,10.18
2023-04-20T06:25:08.353Z,10.22
2023-04-20T06:26:30.117Z,10.27
2023-04-20T06:28:15.203Z,10.27
2023-04-20T06:30:00.286Z,10.38
2023-04-20T06:31:34.084Z,10.48
2023-04-20T06:33:19.203Z,10.57
2023-04-20T06:35:04.689Z,10.67
2023-04-20T06:36:37.976Z,10.74
2023-04-20T06:38:06.876Z,10.74
2023-04-20T06:39:48.160Z,10.73
2023-04-20T06:41:33.798Z,10.71
2023-04-20T06:43:11.893Z,10.74
2023-04-20T06:44:47.385Z,10.77
2023-04-20T06:46:16.843Z,10.79
2023-04-20T06:47:57.607Z,10.81
2023-04-20T06:49:31.228Z,10.88
2023-04-20T06:51:04.748Z,10.96
2023-04-20T06:52:31.231Z,11.05
2023-04-20T06:54:00.483Z,11.15
2023-04-20T06:55:48.716Z,11.29
2023-04-20T06:57:24.722Z,11.44
2023-04-20T06:58:58.092Z,11.62
2023-04-20T07:00:27.824Z,11.74
2023-04-20T07:01:58.895Z,11.89
2023-04-20T07:03:32.829Z,12.02
2023-04-20T07:05:06.237Z,12.14
2023-04-20T07:06:35.467Z,12.20
2023-04-20T07:08:08.855Z,12.26
2023-04-20T07:09:53.481Z,12.35
2023-04-20T07:11:29.709Z,12.43
2023-04-20T07:12:51.027Z,12.49
2023-04-20T07:14:13.313Z,12.56
2023-04-20T07:15:49.085Z,12.64
2023-04-20T07:17:34.304Z,12.68
2023-04-20T07:19:19.801Z,12.67
2023-04-20T07:20:56.182Z,12.63
2023-04-20T07:22:32.485Z,12.65
2023-04-20T07:24:05.890Z,12.65
2023-04-20T07:25:27.814Z,12.67
2023-04-20T07:27:09.054Z,12.73
2023-04-20T07:28:30.751Z,12.79
2023-04-20T07:29:52.273Z,12.82
2023-04-20T07:31:22.027Z,12.84
2023-04-20T07:32:53.597Z,12.90
2023-04-20T07:34:27.710Z,12.95
2023-04-20T07:36:13.394Z,12.96
2023-04-20T07:37:53.841Z,13.11
2023-04-20T07:39:30.231Z,13.27
2023-04-20T07:41:03.855Z,13.38
2023-04-20T07:42:57.419Z,13.49
2023-04-20T07:44:21.757Z,13.54
2023-04-20T07:46:06.644Z,13.66
2023-04-20T07:47:51.623Z,13.78
2023-04-20T07:49:41.733Z,13.87
2023-04-20T07:51:13.678Z,13.99
2023-04-20T07:52:35.802Z,14.09
2023-04-20T07:54:09.511Z,14.11
2023-04-20T07:55:40.918Z,14.08
2023-04-20T07:57:16.372Z,14.06
2023-04-20T07:58:52.379Z,14.10
2023-04-20T08:00:24.484Z,14.16
2023-04-20T08:01:59.895Z,14.22
2023-04-20T08:03:45.518Z,14.21
2023-04-20T08:05:10.062Z,14.27
2023-04-20T08:06:32.904Z,14.26
2023-04-20T08:07:59.361Z,14.33
2023-04-20T08:09:44.721Z,14.41
2023-04-20T08:11:27.727Z,14.52
2023-04-20T08:13:03.340Z,14.64
2023-04-20T08:14:25.278Z,14.78
2023-04-20T08:15:58.142Z,14.88
2023-04-20T08:17:24.603Z,14.96
2023-04-20T08:18:57.957Z,15.09
2023-04-20T08:20:30.851Z,15.22
2023-04-20T08:22:20.029Z,15.28
2023-04-20T08:23:53.324Z,15.38
2023-04-20T08:25:27.373Z,15.48
2023-04-20T08:27:01.613Z,15.54
2023-04-20T08:28:34.933Z,15.60
2023-04-20T08:30:20.542Z,15.68
2023-04-20T08:31:41.877Z,15.78
2023-04-20T08:33:11.514Z,15.87
2023-04-20T08:34:33.884Z,15.87
2023-04-20T08:36:19.442Z,15.84
2023-04-20T08:38:03.754Z,15.79
2023-04-20T08:39:49.898Z,15.89
2023-04-20T08:41:23.197Z,15.91
2023-04-20T08:42:47.304Z,15.85
2023-04-20T08:44:11.472Z,15.78
2023-04-20T08:45:44.665Z,15.78
2023-04-20T08:47:20.159Z,15.86
2023-04-20T08:49:05.198Z,15.83
2023-04-20T08:50:50.523Z,15.78
2023-04-20T08:52:12.234Z,15.75
2023-04-20T08:53:53.943Z,15.75
2023-04-20T08:55:27.338Z,15.81
2023-04-20T08:56:57.042Z,15.85
2023-04-20T08:58:30.569Z,15.88
2023-04-20T09:00:05.762Z,15.89
2023-04-20T09:01:39.072Z,15.84
2023-04-20T09:03:11.187Z,15.80
2023-04-20T09:04:33.262Z,15.79
2023-04-20T09:06:02.953Z,15.78
2023-04-20T09:07:32.061Z,15.81
2023-04-20T09:08:58.170Z,15.85
2023-04-20T09:10:31.636Z,15.89
2023-04-20T09:12:07.700Z,15.91
2023-04-20T09:13:41.589Z,15.88
2023-04-20T09:15:15.219Z,15.91
2023-04-20T09:17:00.787Z,15.95
2023-04-20T09:18:30.263Z,16.00
2023-04-20T09:19:51.958Z,16.08
2023-04-20T09:21:27.746Z,16.18
2023-04-20T09:22:54.226Z,16.25
2023-04-20T09:24:27.712Z,16.30
2023-04-20T09:26:04.028Z,16.42
2023-04-20T09:27:45.023Z,16.58
2023-04-20T09:29:30.387Z,16.69
2023-04-20T09:31:16.789Z,16.80
2023-04-20T09:32:52.390Z,16.99
2023-04-20T09:34:14.565Z,17.20
2023-04-20T09:35:56.043Z,17.33
2023-04-20T09:37:40.718Z,17.39
2023-04-20T09:39:03.771Z,17.49
2023-04-20T09:40:48.696Z,17.58
2023-04-20T09:42:10.954Z,17.61
2023-04-20T09:43:40.167Z,17.63
2023-04-20T09:45:02.599Z,17.61
2023-04-20T09:46:36.087Z,17.58
2023-04-20T09:47:57.834Z,17.62
2023-04-20T09:49:33.397Z,17.68
2023-04-20T09:50:57.099Z,17.82
2023-04-20T09:52:19.257Z,17.98
2023-04-20T09:53:54.817Z,18.09
2023-04-20T09:55:28.369Z,18.23
2023-04-20T09:57:04.625Z,18.33
2023-04-20T09:58:33.403Z,18.39
2023-04-20T09:59:57.319Z,18.47
2023-04-20T10:01:27.220Z,18.55
2023-04-20T10:03:00.777Z,18.66
2023-04-20T10:04:23.736Z,18.71
2023-04-20T10:05:47.574Z,18.80
2023-04-20T10:07:11.994Z,18.90
2023-04-20T10:08:42.131Z,18.93
2023-04-20T10:10:15.571Z,18.88
2023-04-20T10:11:53.975Z,18.89
2023-04-20T10:13:28.827Z,18.81
2023-04-20T10:14:57.729Z,18.71
2023-04-20T10:16:27.046Z,18.57
2023-04-20T10:17:48.856Z,18.64
2023-04-20T10:19:10.641Z,18.77
2023-04-20T10:20:34.773Z,18.84
2023-04-20T10:22:20.071Z,18.84
2023-04-20T10:23:53.631Z,18.90
2023-04-20T10:25:17.747Z,18.98
2023-04-20T10:26:47.240Z,19.06
2023-04-20T10:28:29.268Z,19.11
2023-04-20T10:29:52.917Z,19.26
2023-04-20T10:31:33.828Z,19.30
2023-04-20T10:32:58.011Z,19.37
2023-04-20T10:34:24.629Z,19.44
2023-04-20T10:35:58.995Z,19.43
2023-04-20T10:37:32.894Z,19.43
2023-04-20T10:39:19.531Z,19.43
2023-04-20T10:41:04.691Z,19.49
2023-04-20T10:42:36.097Z,19.50
2023-04-20T10:44:07.623Z,19.59
2023-04-20T10:45:52.363Z,19.65
2023-04-20T10:47:37.540Z,19.81
2023-04-20T10:49:22.510Z,19.90
2023-04-20T10:51:12.961Z,19.95
2023-04-20T10:52:53.366Z,20.04
2023-04-20T10:54:26.961Z,20.25
2023-04-20T10:56:03.209Z,20.39
2023-04-20T10:57:36.462Z,20.38
2023-04-20T10:58:59.898Z,20.39
2023-04-20T11:00:34.982Z,20.45
2023-04-20T11:02:28.733Z,20.62
2023-04-20T11:04:16.194Z,20.76
2023-04-20T11:06:03.588Z,20.80
2023-04-20T11:07:57.597Z,20.57
2023-04-20T11:09:51.020Z,20.29
2023-04-20T11:11:45.371Z,20.08
2023-04-20T11:13:39.212Z,19.81
2023-04-20T11:15:13.644Z,19.50
2023-04-20T11:16:59.042Z,19.26
2023-04-20T11:18:52.763Z,19.13
2023-04-20T11:20:15.165Z,18.95
2023-04-20T11:21:48.336Z,18.75
2023-04-20T11:23:41.966Z,18.59
2023-04-20T11:25:17.928Z,18.41
2023-04-20T11:26:53.799Z,18.28
2023-04-20T11:28:34.979Z,18.18
2023-04-20T11:30:10.237Z,18.02
2023-04-20T11:31:55.333Z,17.88
2023-04-20T11:33:28.964Z,17.76
2023-04-20T11:35:14.231Z,17.56
2023-04-20T11:36:58.973Z,17.55
2023-04-20T11:38:32.397Z,17.46
2023-04-20T11:40:06.078Z,17.39
2023-04-20T11:41:27.727Z,17.33
2023-04-20T11:42:48.963Z,17.26
2023-04-20T11:44:26.028Z,17.20
2023-04-20T11:45:47.859Z,17.14
2023-04-20T11:47:17.211Z,17.07
2023-04-20T11:49:02.190Z,17.02
2023-04-20T11:50:56.146Z,16.99
2023-04-20T11:52:41.115Z,17.01
2023-04-20T11:54:34.663Z,17.06
2023-04-20T11:56:08.764Z,17.15
2023-04-20T11:57:53.503Z,17.26
2023-04-20T11:59:28.271Z,17.34
2023-04-20T12:01:01.191Z,17.48
2023-04-20T12:02:36.669Z,17.61
2023-04-20T12:04:10.331Z,17.74
2023-04-20T12:05:44.321Z,17.79
2023-04-20T12:07:26.585Z,17.90
2023-04-20T12:08:51.116Z,17.96
2023-04-20T12:10:15.122Z,17.99
2023-04-20T12:11:39.768Z,18.02
2023-04-20T12:13:01.697Z,18.02
2023-04-20T12:14:26.904Z,18.01
2023-04-20T12:15:51.012Z,18.03
2023-04-20T12:17:29.610Z,18.08
2023-04-20T12:19:00.666Z,18.11
2023-04-20T12:20:45.828Z,18.16
2023-04-20T12:22:21.753Z,18.26
2023-04-20T12:23:57.400Z,18.33
2023-04-20T12:25:50.690Z,18.38
2023-04-20T12:27:25.629Z,18.38
2023-04-20T12:28:58.863Z,18.36
2023-04-20T12:30:44.107Z,18.30
2023-04-20T12:32:13.395Z,18.21
2023-04-20T12:33:44.533Z,18.14
2023-04-20T12:35:38.242Z,17.98
2023-04-20T12:37:11.491Z,17.85
2023-04-20T12:38:33.557Z,17.79
2023-04-20T12:40:07.141Z,17.75
2023-04-20T12:41:36.510Z,17.74
2023-04-20T12:43:00.665Z,17.79
2023-04-20T12:44:24.785Z,17.82
2023-04-20T12:45:57.919Z,17.85
2023-04-20T12:47:31.817Z,17.86
2023-04-20T12:48:55.638Z,17.83
2023-04-20T12:50:17.517Z,17.72
2023-04-20T12:51:39.398Z,17.58
2023-04-20T12:53:21.334Z,17.55
2023-04-20T12:55:02.146Z,17.56
2023-04-20T12:56:47.164Z,17.59
2023-04-20T12:58:09.095Z,17.61
2023-04-20T12:59:31.016Z,17.61
2023-04-20T13:00:52.453Z,17.61
2023-04-20T13:02:26.379Z,17.59
2023-04-20T13:03:48.826Z,17.59
2023-04-20T13:05:20.632Z,17.61
2023-04-20T13:07:05.936Z,17.67
2023-04-20T13:08:39.601Z,17.73
2023-04-20T13:10:09.028Z,17.81
2023-04-20T13:11:44.471Z,17.89
2023-04-20T13:13:18.389Z,17.92
2023-04-20T13:14:51.658Z,17.98
2023-04-20T13:16:15.978Z,18.03
2023-04-20T13:17:49.130Z,18.10
2023-04-20T13:19:31.118Z,18.16
2023-04-20T13:21:04.813Z,18.23
2023-04-20T13:22:57.554Z,18.29
2023-04-20T13:24:27.608Z,18.65
2023-04-20T13:26:00.757Z,19.30
2023-04-20T13:27:41.769Z,20.13
2023-04-20T13:29:17.511Z,20.79
2023-04-20T13:30:47.038Z,21.22
2023-04-20T13:32:27.989Z,21.52
2023-04-20T13:33:56.530Z,21.91
2023-04-20T13:35:30.513Z,22.36
2023-04-20T13:37:04.153Z,22.61
2023-04-20T13:38:33.304Z,22.99
2023-04-20T13:40:06.864Z,23.27
2023-04-20T13:41:52.193Z,23.62
2023-04-20T13:43:16.229Z,24.03
2023-04-20T13:45:01.037Z,24.29
2023-04-20T13:46:46.024Z,24.41
2023-04-20T13:48:36.363Z,24.54
2023-04-20T13:50:09.484Z,24.93
2023-04-20T13:51:54.138Z,25.43
2023-04-20T13:53:38.369Z,25.91
2023-04-20T13:55:25.005Z,26.35
2023-04-20T13:57:02.381Z,26.84
2023-04-20T13:58:26.940Z,27.25
2023-04-20T14:00:02.518Z,27.39
2023-04-20T14:01:34.645Z,27.56
2023-04-20T14:03:27.222Z,27.45
2023-04-20T14:05:13.233Z,26.95
2023-04-20T14:06:58.328Z,26.47
2023-04-20T14:08:40.620Z,25.90
2023-04-20T14:10:22.346Z,25.24
2023-04-20T14:11:57.742Z,24.58
2023-04-20T14:13:43.164Z,24.02
2023-04-20T14:15:05.512Z,23.82
2023-04-20T14:16:39.977Z,23.58
2023-04-20T14:18:13.616Z,23.19
2023-04-20T14:19:58.361Z,23.23
2023-04-20T14:21:46.747Z,23.65
2023-04-20T14:23:09.609Z,24.02
2023-04-20T14:24:45.301Z,24.05
2023-04-20T14:26:30.808Z,24.23
2023-04-20T14:28:11.785Z,24.85
2023-04-20T14:29:44.864Z,25.27
2023-04-20T14:31:08.989Z,25.67
2023-04-20T14:32:42.585Z,25.95
2023-04-20T14:34:13.087Z,26.11
2023-04-20T14:35:46.456Z,26.17
2023-04-20T14:37:29.435Z,26.19
2023-04-20T14:39:14.542Z,26.23
2023-04-20T14:40:54.786Z,25.99
2023-04-20T14:42:49.435Z,25.59
2023-04-20T14:44:22.991Z,25.19
2023-04-20T14:46:15.936Z,25.13
2023-04-20T14:47:51.568Z,24.95
2023-04-20T14:49:45.409Z,24.42
2023-04-20T14:51:34.464Z,23.96
2023-04-20T14:53:08.123Z,23.55
2023-04-20T14:54:44.091Z,23.26
2023-04-20T14:56:13.330Z,22.94
2023-04-20T14:57:48.914Z,22.59
2023-04-20T14:59:20.324Z,22.11
2023-04-20T15:00:56.172Z,21.56
2023-04-20T15:02:28.054Z,21.12
2023-04-20T15:04:03.882Z,20.73
2023-04-20T15:05:42.017Z,20.49
2023-04-20T15:07:17.663Z,20.26
2023-04-20T15:08:42.376Z,20.08
2023-04-20T15:10:16.158Z,19.84
2023-04-20T15:11:37.631Z,19.65
2023-04-20T15:13:18.520Z,19.53
2023-04-20T15:15:03.680Z,19.40
2023-04-20T15:16:25.281Z,19.49
2023-04-20T15:17:58.555Z,19.79
2023-04-20T15:19:30.260Z,20.36
2023-04-20T15:21:01.186Z,20.80
2023-04-20T15:22:46.263Z,20.70
2023-04-20T15:24:23.119Z,20.63
2023-04-20T15:25:49.497Z,20.54
2023-04-20T15:27:22.889Z,20.47
2023-04-20T15:29:07.545Z,20.45
2023-04-20T15:30:40.978Z,20.43
2023-04-20T15:32:14.403Z,20.43
2023-04-20T15:33:50.557Z,20.48
2023-04-20T15:35:31.298Z,20.26
2023-04-20T15:37:07.652Z,20.10
2023-04-20T15:38:36.818Z,19.94
2023-04-20T15:40:12.731Z,20.30
2023-04-20T15:41:43.771Z,20.80
2023-04-20T15:43:17.424Z,21.34
2023-04-20T15:44:50.721Z,21.95
2023-04-20T15:46:24.232Z,22.43
2023-04-20T15:48:09.193Z,23.07
2023-04-20T15:49:40.455Z,23.59
2023-04-20T15:51:25.508Z,24.00
2023-04-20T15:52:49.681Z,24.34
2023-04-20T15:54:23.690Z,24.65
2023-04-20T15:55:59.468Z,25.02
2023-04-20T15:57:33.729Z,25.11
2023-04-20T15:59:18.713Z,25.17
2023-04-20T16:01:00.056Z,25.03
2023-04-20T16:02:34.450Z,24.87
2023-04-20T16:04:19.977Z,24.25
2023-04-20T16:05:53.864Z,23.81
2023-04-20T16:07:38.212Z,23.29
2023-04-20T16:08:59.748Z,22.80
2023-04-20T16:10:40.688Z,22.47
2023-04-20T16:12:05.470Z,22.06
2023-04-20T16:13:29.299Z,21.73
2023-04-20T16:15:03.691Z,21.38
2023-04-20T16:16:58.468Z,21.11
2023-04-20T16:18:32.292Z,21.00
2023-04-20T16:19:54.033Z,20.98
2023-04-20T16:21:27.492Z,20.87
2023-04-20T16:22:59.360Z,20.66
2023-04-20T16:24:23.105Z,20.35
2023-04-20T16:25:56.308Z,20.07
2023-04-20T16:27:29.740Z,19.80
2023-04-20T16:28:58.935Z,19.61
2023-04-20T16:30:40.055Z,19.44
2023-04-20T16:32:04.617Z,19.28
2023-04-20T16:33:33.761Z,19.17
2023-04-20T16:35:07.885Z,19.06
2023-04-20T16:36:29.473Z,19.02
2023-04-20T16:38:04.807Z,18.95
2023-04-20T16:39:57.990Z,18.86
2023-04-20T16:41:31.813Z,18.76
2023-04-20T16:43:18.226Z,18.60
2023-04-20T16:44:53.918Z,18.42
2023-04-20T16:46:46.872Z,18.24
2023-04-20T16:48:27.800Z,18.09
2023-04-20T16:50:09.017Z,17.93
2023-04-20T16:51:33.261Z,17.80
2023-04-20T16:53:04.501Z,17.69
2023-04-20T16:54:50.423Z,17.56
2023-04-20T16:56:15.063Z,17.48
2023-04-20T16:57:59.985Z,17.39
2023-04-20T16:59:50.357Z,17.31
2023-04-20T17:01:12.420Z,17.18
2023-04-20T17:02:53.033Z,17.17
2023-04-20T17:04:36.083Z,17.07
2023-04-20T17:06:07.044Z,16.94
2023-04-20T17:07:29.174Z,16.94
2023-04-20T17:09:22.467Z,16.86
2023-04-20T17:11:07.248Z,16.73
2023-04-20T17:12:29.084Z,16.62
2023-04-20T17:14:02.636Z,16.53
2023-04-20T17:15:47.690Z,16.45
2023-04-20T17:17:41.494Z,16.34
2023-04-20T17:19:05.467Z,16.20
2023-04-20T17:20:52.176Z,16.12
2023-04-20T17:22:16.551Z,16.00
2023-04-20T17:23:41.004Z,15.92
2023-04-20T17:25:14.726Z,15.81
2023-04-20T17:26:41.445Z,15.76
2023-04-20T17:28:22.444Z,15.66
2023-04-20T17:29:56.356Z,15.59
2023-04-20T17:31:33.399Z,15.54
2023-04-20T17:32:57.188Z,15.49
2023-04-20T17:34:20.429Z,15.45
2023-04-20T17:35:46.662Z,15.39
2023-04-20T17:37:15.952Z,15.34
2023-04-20T17:38:50.096Z,15.28
2023-04-20T17:40:12.150Z,15.22
2023-04-20T17:41:35.565Z,15.17
2023-04-20T17:42:57.068Z,15.13
2023-04-20T17:44:25.953Z,15.08
2023-04-20T17:46:11.162Z,14.99
2023-04-20T17:47:46.884Z,14.95
2023-04-20T17:49:20.414Z,14.91
2023-04-20T17:50:49.684Z,14.78
2023-04-20T17:52:34.765Z,14.83
2023-04-20T17:54:08.391Z,14.79
2023-04-20T17:55:41.973Z,14.74
2023-04-20T17:57:15.413Z,14.66
2023-04-20T17:58:49.145Z,14.56
2023-04-20T18:00:13.496Z,14.55
2023-04-20T18:01:35.910Z,14.49
2023-04-20T18:03:05.285Z,14.43
2023-04-20T18:04:39.109Z,14.38
2023-04-20T18:06:13.468Z,14.33
2023-04-20T18:07:46.602Z,14.25
2023-04-20T18:09:12.725Z,14.11
2023-04-20T18:10:46.188Z,14.09
2023-04-20T18:12:10.507Z,14.02
2023-04-20T18:13:32.171Z,13.96
2023-04-20T18:14:53.544Z,13.91
2023-04-20T18:16:15.989Z,13.86
2023-04-20T18:17:44.621Z,13.80
2023-04-20T18:19:38.326Z,13.74
2023-04-20T18:21:09.770Z,13.68
2023-04-20T18:22:51.383Z,13.62
2023-04-20T18:24:32.061Z,13.53
2023-04-20T18:25:56.289Z,13.45
2023-04-20T18:27:37.026Z,13.36
2023-04-20T18:29:10.649Z,13.29
2023-04-20T18:30:57.659Z,13.22
2023-04-20T18:32:33.003Z,13.15
2023-04-20T18:34:18.171Z,13.11
2023-04-20T18:36:00.382Z,13.09
2023-04-20T18:37:54.154Z,13.07
2023-04-20T18:39:43.452Z,13.09
2023-04-20T18:41:24.186Z,13.11
2023-04-20T18:42:57.780Z,13.13
2023-04-20T18:44:42.171Z,13.15
2023-04-20T18:46:14.056Z,13.13
2023-04-20T18:47:47.143Z,13.21
2023-04-20T18:49:27.960Z,13.21
2023-04-20T18:51:03.615Z,13.19
2023-04-20T18:52:26.315Z,13.08
2023-04-20T18:53:52.736Z,13.22
2023-04-20T18:55:28.791Z,13.21
2023-04-20T18:57:09.932Z,13.19
2023-04-20T18:58:45.585Z,13.15
2023-04-20T19:00:26.786Z,13.12
2023-04-20T19:01:51.120Z,13.10
2023-04-20T19:03:26.814Z,13.09
2023-04-20T19:04:50.992Z,13.08
2023-04-20T19:06:22.342Z,13.08
2023-04-20T19:07:46.977Z,13.08
2023-04-20T19:09:18.373Z,13.07
2023-04-20T19:11:03.370Z,13.03
2023-04-20T19:12:37.104Z,13.07
2023-04-20T19:14:22.425Z,13.05
2023-04-20T19:15:48.886Z,13.04
2023-04-20T19:17:22.409Z,13.02
2023-04-20T19:18:48.377Z,13.00
2023-04-20T19:20:12.305Z,12.97
2023-04-20T19:21:57.440Z,12.92
2023-04-20T19:23:37.973Z,12.87
2023-04-20T19:25:23.118Z,12.83
2023-04-20T19:26:52.312Z,12.76
2023-04-20T19:28:14.297Z,12.61
2023-04-20T19:29:43.261Z,12.74
2023-04-20T19:31:36.829Z,12.74
2023-04-20T19:33:19.531Z,12.71
2023-04-20T19:35:00.309Z,12.68
2023-04-20T19:36:24.401Z,12.64
2023-04-20T19:38:09.165Z,12.64
2023-04-20T19:39:45.547Z,12.61
2023-04-20T19:41:19.411Z,12.58
2023-04-20T19:42:42.322Z,12.56
2023-04-20T19:44:18.800Z,12.43
2023-04-20T19:45:59.349Z,12.40
2023-04-20T19:47:32.557Z,12.36
2023-04-20T19:48:54.414Z,12.41
2023-04-20T19:50:18.516Z,12.38
2023-04-20T19:51:52.118Z,12.36
2023-04-20T19:53:16.506Z,12.32
2023-04-20T19:54:43.077Z,12.30
2023-04-20T19:58:10.648Z,12.26
2023-04-20T19:59:46.073Z,12.18
2023-04-20T20:01:10.708Z,12.17
2023-04-20T20:02:37.730Z,12.14
2023-04-20T20:04:02.325Z,12.07
2023-04-20T20:05:26.383Z,12.10
2023-04-20T20:07:02.138Z,12.07
2023-04-20T20:08:39.197Z,12.05
2023-04-20T20:10:12.666Z,12.01
2023-04-20T20:11:48.804Z,11.99
2023-04-20T20:13:29.905Z,11.94
2023-04-20T20:14:54.354Z,11.90
2023-04-20T20:16:30.191Z,11.87
2023-04-20T20:17:59.347Z,11.84
2023-04-20T20:19:22.008Z,11.82
2023-04-20T20:20:55.619Z,11.82
2023-04-20T20:24:42.689Z,11.77
2023-04-20T20:26:04.814Z,11.78
2023-04-20T20:27:28.744Z,11.79
2023-04-20T20:28:53.463Z,11.77
2023-04-20T20:30:23.006Z,11.67
2023-04-20T20:31:56.554Z,11.73
2023-04-20T20:33:23.568Z,11.71
2023-04-20T20:35:07.365Z,11.70
2023-04-20T20:36:32.027Z,11.70
2023-04-20T20:37:56.210Z,11.64
2023-04-20T20:39:32.349Z,11.69
2023-04-20T20:40:56.457Z,11.69
2023-04-20T20:42:30.965Z,11.70
2023-04-20T20:44:12.019Z,11.70
2023-04-20T20:45:48.854Z,11.73
2023-04-20T20:47:12.900Z,11.72
2023-04-20T20:49:00.602Z,11.72
2023-04-20T20:50:30.496Z,11.71
2023-04-20T20:52:15.645Z,11.68